sensor_id;sensor_type;location;lat;lon;timestamp;P1;durP1;ratioP1;P2;durP2;ratioP2
3297;SDS011;1661;53.572;10.174;2022-12-18T00:00:00;31.70;;;20.15;;
3297;SDS011;1661;53.572;10.174;2022-12-18T00:02:26;41.17;;;21.25;;
3297;SDS011;1661;53.572;10.174;2022-12-18T00:04:59;36.40;;;18.20;;
3297;SDS011;1661;53.572;10.174;2022-12-18T00:07:26;38.58;;;18.85;;
3297;SDS011;1661;53.572;10.174;2022-12-18T00:09:52;30.60;;;18.52;;
3297;SDS011;1661;53.572;10.174;2022-12-18T00:12:19;37.78;;;18.63;;
3297;SDS011;1661;53.572;10.174;2022-12-18T00:14:49;35.08;;;20.42;;
3297;SDS011;1661;53.572;10.174;2022-12-18T00:17:17;31.17;;;19.20;;
3297;SDS011;1661;53.572;10.174;2022-12-18T00:19:46;21.38;;;16.83;;
3297;SDS011;1661;53.572;10.174;2022-12-18T00:22:13;31.70;;;19.20;;
3297;SDS011;1661;53.572;10.174;2022-12-18T00:24:40;35.55;;;20.23;;
3297;SDS011;1661;53.572;10.174;2022-12-18T00:27:09;31.15;;;18.55;;
3297;SDS011;1661;53.572;10.174;2022-12-18T00:29:39;30.45;;;17.63;;
3297;SDS011;1661;53.572;10.174;2022-12-18T00:32:07;27.23;;;17.65;;
3297;SDS011;1661;53.572;10.174;2022-12-18T00:34:34;30.38;;;17.90;;
3297;SDS011;1661;53.572;10.174;2022-12-18T00:37:01;27.50;;;17.63;;
3297;SDS011;1661;53.572;10.174;2022-12-18T00:39:29;29.17;;;18.80;;
3297;SDS011;1661;53.572;10.174;2022-12-18T00:41:56;24.63;;;18.13;;
3297;SDS011;1661;53.572;10.174;2022-12-18T00:44:40;24.55;;;17.98;;
3297;SDS011;1661;53.572;10.174;2022-12-18T00:47:08;28.73;;;16.60;;
3297;SDS011;1661;53.572;10.174;2022-12-18T00:49:35;36.03;;;18.55;;
3297;SDS011;1661;53.572;10.174;2022-12-18T00:52:04;27.23;;;17.27;;
3297;SDS011;1661;53.572;10.174;2022-12-18T00:54:31;28.65;;;17.50;;
3297;SDS011;1661;53.572;10.174;2022-12-18T00:56:58;26.08;;;17.70;;
3297;SDS011;1661;53.572;10.174;2022-12-18T00:59:25;30.40;;;17.48;;
3297;SDS011;1661;53.572;10.174;2022-12-18T01:01:54;31.10;;;17.73;;
3297;SDS011;1661;53.572;10.174;2022-12-18T01:04:25;32.03;;;15.95;;
3297;SDS011;1661;53.572;10.174;2022-12-18T01:06:52;25.67;;;16.77;;
3297;SDS011;1661;53.572;10.174;2022-12-18T01:09:19;22.67;;;16.60;;
3297;SDS011;1661;53.572;10.174;2022-12-18T01:11:46;26.33;;;17.10;;
3297;SDS011;1661;53.572;10.174;2022-12-18T01:14:12;25.20;;;16.27;;
3297;SDS011;1661;53.572;10.174;2022-12-18T01:16:39;33.45;;;18.13;;
3297;SDS011;1661;53.572;10.174;2022-12-18T01:19:06;32.97;;;18.00;;
3297;SDS011;1661;53.572;10.174;2022-12-18T01:21:35;26.88;;;17.45;;
3297;SDS011;1661;53.572;10.174;2022-12-18T01:24:02;24.33;;;16.15;;
3297;SDS011;1661;53.572;10.174;2022-12-18T01:26:29;38.60;;;16.67;;
3297;SDS011;1661;53.572;10.174;2022-12-18T01:28:56;33.80;;;18.20;;
3297;SDS011;1661;53.572;10.174;2022-12-18T01:31:23;24.20;;;16.90;;
3297;SDS011;1661;53.572;10.174;2022-12-18T01:33:52;26.38;;;16.88;;
3297;SDS011;1661;53.572;10.174;2022-12-18T01:36:20;28.13;;;16.80;;
3297;SDS011;1661;53.572;10.174;2022-12-18T01:38:49;31.17;;;16.48;;
3297;SDS011;1661;53.572;10.174;2022-12-18T01:41:19;28.13;;;17.23;;
3297;SDS011;1661;53.572;10.174;2022-12-18T01:43:49;28.05;;;17.15;;
3297;SDS011;1661;53.572;10.174;2022-12-18T01:46:18;23.23;;;15.95;;
3297;SDS011;1661;53.572;10.174;2022-12-18T01:48:46;28.55;;;18.02;;
3297;SDS011;1661;53.572;10.174;2022-12-18T01:51:16;21.55;;;14.05;;
3297;SDS011;1661;53.572;10.174;2022-12-18T01:53:43;25.02;;;16.38;;
3297;SDS011;1661;53.572;10.174;2022-12-18T01:56:16;27.70;;;16.80;;
3297;SDS011;1661;53.572;10.174;2022-12-18T01:58:50;22.98;;;15.50;;
3297;SDS011;1661;53.572;10.174;2022-12-18T02:01:28;23.33;;;14.30;;
3297;SDS011;1661;53.572;10.174;2022-12-18T02:03:56;23.02;;;16.15;;
3297;SDS011;1661;53.572;10.174;2022-12-18T02:06:46;22.02;;;14.77;;
3297;SDS011;1661;53.572;10.174;2022-12-18T02:09:18;27.10;;;15.75;;
3297;SDS011;1661;53.572;10.174;2022-12-18T02:11:52;22.63;;;15.60;;
3297;SDS011;1661;53.572;10.174;2022-12-18T02:14:27;23.00;;;14.63;;
3297;SDS011;1661;53.572;10.174;2022-12-18T02:17:03;30.40;;;16.00;;
3297;SDS011;1661;53.572;10.174;2022-12-18T02:19:44;25.63;;;15.90;;
3297;SDS011;1661;53.572;10.174;2022-12-18T02:22:26;22.65;;;14.27;;
3297;SDS011;1661;53.572;10.174;2022-12-18T02:25:00;19.92;;;15.00;;
3297;SDS011;1661;53.572;10.174;2022-12-18T02:27:41;20.38;;;13.45;;
3297;SDS011;1661;53.572;10.174;2022-12-18T02:30:10;24.48;;;17.80;;
3297;SDS011;1661;53.572;10.174;2022-12-18T02:32:38;30.30;;;15.77;;
3297;SDS011;1661;53.572;10.174;2022-12-18T02:35:10;27.23;;;15.80;;
3297;SDS011;1661;53.572;10.174;2022-12-18T02:37:45;20.45;;;15.55;;
3297;SDS011;1661;53.572;10.174;2022-12-18T02:40:13;18.77;;;14.57;;
3297;SDS011;1661;53.572;10.174;2022-12-18T02:42:44;20.10;;;13.52;;
3297;SDS011;1661;53.572;10.174;2022-12-18T02:45:11;27.92;;;15.75;;
3297;SDS011;1661;53.572;10.174;2022-12-18T02:47:39;18.45;;;12.98;;
3297;SDS011;1661;53.572;10.174;2022-12-18T02:50:10;21.08;;;13.30;;
3297;SDS011;1661;53.572;10.174;2022-12-18T02:52:45;22.35;;;11.27;;
3297;SDS011;1661;53.572;10.174;2022-12-18T02:55:28;20.80;;;13.30;;
3297;SDS011;1661;53.572;10.174;2022-12-18T02:58:09;20.38;;;13.82;;
3297;SDS011;1661;53.572;10.174;2022-12-18T03:00:43;27.35;;;15.73;;
3297;SDS011;1661;53.572;10.174;2022-12-18T03:03:16;18.88;;;11.98;;
3297;SDS011;1661;53.572;10.174;2022-12-18T03:05:50;23.20;;;14.15;;
3297;SDS011;1661;53.572;10.174;2022-12-18T03:08:20;20.85;;;12.20;;
3297;SDS011;1661;53.572;10.174;2022-12-18T03:10:51;23.95;;;14.55;;
3297;SDS011;1661;53.572;10.174;2022-12-18T03:13:28;18.42;;;12.38;;
3297;SDS011;1661;53.572;10.174;2022-12-18T03:15:59;23.50;;;13.95;;
3297;SDS011;1661;53.572;10.174;2022-12-18T03:18:29;18.38;;;11.43;;
3297;SDS011;1661;53.572;10.174;2022-12-18T03:21:00;19.13;;;14.48;;
3297;SDS011;1661;53.572;10.174;2022-12-18T03:23:34;22.52;;;14.73;;
3297;SDS011;1661;53.572;10.174;2022-12-18T03:26:06;20.92;;;14.60;;
3297;SDS011;1661;53.572;10.174;2022-12-18T03:28:42;23.85;;;14.60;;
3297;SDS011;1661;53.572;10.174;2022-12-18T03:31:12;21.60;;;14.63;;
3297;SDS011;1661;53.572;10.174;2022-12-18T03:33:41;28.58;;;14.57;;
3297;SDS011;1661;53.572;10.174;2022-12-18T03:36:12;26.85;;;13.65;;
3297;SDS011;1661;53.572;10.174;2022-12-18T03:38:39;23.73;;;14.05;;
3297;SDS011;1661;53.572;10.174;2022-12-18T03:41:07;27.05;;;16.83;;
3297;SDS011;1661;53.572;10.174;2022-12-18T03:43:46;16.80;;;12.32;;
3297;SDS011;1661;53.572;10.174;2022-12-18T03:46:22;29.10;;;12.98;;
3297;SDS011;1661;53.572;10.174;2022-12-18T03:48:54;22.63;;;14.82;;
3297;SDS011;1661;53.572;10.174;2022-12-18T03:51:26;26.13;;;15.40;;
3297;SDS011;1661;53.572;10.174;2022-12-18T03:54:02;22.23;;;14.95;;
3297;SDS011;1661;53.572;10.174;2022-12-18T03:56:31;18.38;;;10.98;;
3297;SDS011;1661;53.572;10.174;2022-12-18T03:59:04;21.00;;;14.55;;
3297;SDS011;1661;53.572;10.174;2022-12-18T04:01:34;20.55;;;13.05;;
3297;SDS011;1661;53.572;10.174;2022-12-18T04:04:04;20.55;;;14.43;;
3297;SDS011;1661;53.572;10.174;2022-12-18T04:06:35;21.42;;;14.68;;
3297;SDS011;1661;53.572;10.174;2022-12-18T04:09:03;23.60;;;14.07;;
3297;SDS011;1661;53.572;10.174;2022-12-18T04:11:31;22.65;;;15.15;;
3297;SDS011;1661;53.572;10.174;2022-12-18T04:13:57;31.35;;;15.52;;
3297;SDS011;1661;53.572;10.174;2022-12-18T04:16:29;22.95;;;14.35;;
3297;SDS011;1661;53.572;10.174;2022-12-18T04:18:55;24.67;;;15.05;;
3297;SDS011;1661;53.572;10.174;2022-12-18T04:21:22;25.20;;;15.70;;
3297;SDS011;1661;53.572;10.174;2022-12-18T04:23:49;24.25;;;15.38;;
3297;SDS011;1661;53.572;10.174;2022-12-18T04:26:16;20.15;;;13.98;;
3297;SDS011;1661;53.572;10.174;2022-12-18T04:28:43;17.83;;;14.00;;
3297;SDS011;1661;53.572;10.174;2022-12-18T04:31:09;26.05;;;14.55;;
3297;SDS011;1661;53.572;10.174;2022-12-18T04:33:41;17.05;;;11.35;;
3297;SDS011;1661;53.572;10.174;2022-12-18T04:36:07;20.20;;;13.10;;
3297;SDS011;1661;53.572;10.174;2022-12-18T04:38:37;18.30;;;12.57;;
3297;SDS011;1661;53.572;10.174;2022-12-18T04:41:04;21.08;;;15.35;;
3297;SDS011;1661;53.572;10.174;2022-12-18T04:43:31;19.52;;;12.02;;
3297;SDS011;1661;53.572;10.174;2022-12-18T04:46:01;21.67;;;13.77;;
3297;SDS011;1661;53.572;10.174;2022-12-18T04:48:28;23.88;;;14.15;;
3297;SDS011;1661;53.572;10.174;2022-12-18T04:50:57;20.30;;;13.20;;
3297;SDS011;1661;53.572;10.174;2022-12-18T04:53:23;22.30;;;12.98;;
3297;SDS011;1661;53.572;10.174;2022-12-18T04:55:50;24.42;;;15.02;;
3297;SDS011;1661;53.572;10.174;2022-12-18T04:58:27;19.20;;;14.35;;
3297;SDS011;1661;53.572;10.174;2022-12-18T05:00:54;24.27;;;15.57;;
3297;SDS011;1661;53.572;10.174;2022-12-18T05:03:21;22.88;;;15.90;;
3297;SDS011;1661;53.572;10.174;2022-12-18T05:05:48;31.10;;;15.98;;
3297;SDS011;1661;53.572;10.174;2022-12-18T05:08:17;29.52;;;14.88;;
3297;SDS011;1661;53.572;10.174;2022-12-18T05:10:44;28.65;;;15.27;;
3297;SDS011;1661;53.572;10.174;2022-12-18T05:13:12;26.23;;;15.48;;
3297;SDS011;1661;53.572;10.174;2022-12-18T05:15:39;24.00;;;16.15;;
3297;SDS011;1661;53.572;10.174;2022-12-18T05:18:06;19.25;;;13.85;;
3297;SDS011;1661;53.572;10.174;2022-12-18T05:20:33;23.48;;;15.20;;
3297;SDS011;1661;53.572;10.174;2022-12-18T05:23:00;17.10;;;12.52;;
3297;SDS011;1661;53.572;10.174;2022-12-18T05:25:28;30.45;;;17.25;;
3297;SDS011;1661;53.572;10.174;2022-12-18T05:27:55;24.35;;;17.85;;
3297;SDS011;1661;53.572;10.174;2022-12-18T05:30:22;21.98;;;16.65;;
3297;SDS011;1661;53.572;10.174;2022-12-18T05:32:49;26.30;;;16.50;;
3297;SDS011;1661;53.572;10.174;2022-12-18T05:35:15;38.08;;;16.98;;
3297;SDS011;1661;53.572;10.174;2022-12-18T05:37:42;28.63;;;18.13;;
3297;SDS011;1661;53.572;10.174;2022-12-18T05:40:10;29.10;;;16.60;;
3297;SDS011;1661;53.572;10.174;2022-12-18T05:42:39;26.85;;;14.55;;
3297;SDS011;1661;53.572;10.174;2022-12-18T05:45:06;21.75;;;15.40;;
3297;SDS011;1661;53.572;10.174;2022-12-18T05:47:33;25.38;;;14.63;;
3297;SDS011;1661;53.572;10.174;2022-12-18T05:50:00;26.27;;;16.27;;
3297;SDS011;1661;53.572;10.174;2022-12-18T05:52:27;24.42;;;15.95;;
3297;SDS011;1661;53.572;10.174;2022-12-18T05:54:53;29.50;;;15.45;;
3297;SDS011;1661;53.572;10.174;2022-12-18T05:57:20;21.10;;;14.57;;
3297;SDS011;1661;53.572;10.174;2022-12-18T05:59:48;22.10;;;15.25;;
3297;SDS011;1661;53.572;10.174;2022-12-18T06:02:15;23.80;;;15.60;;
3297;SDS011;1661;53.572;10.174;2022-12-18T06:04:42;25.50;;;16.60;;
3297;SDS011;1661;53.572;10.174;2022-12-18T06:07:09;30.70;;;16.27;;
3297;SDS011;1661;53.572;10.174;2022-12-18T06:09:36;21.95;;;13.80;;
3297;SDS011;1661;53.572;10.174;2022-12-18T06:12:02;28.60;;;15.35;;
3297;SDS011;1661;53.572;10.174;2022-12-18T06:14:30;24.17;;;15.23;;
3297;SDS011;1661;53.572;10.174;2022-12-18T06:16:58;25.85;;;16.95;;
3297;SDS011;1661;53.572;10.174;2022-12-18T06:19:24;28.42;;;15.98;;
3297;SDS011;1661;53.572;10.174;2022-12-18T06:21:51;25.15;;;16.20;;
3297;SDS011;1661;53.572;10.174;2022-12-18T06:24:18;22.48;;;14.20;;
3297;SDS011;1661;53.572;10.174;2022-12-18T06:26:45;27.00;;;17.23;;
3297;SDS011;1661;53.572;10.174;2022-12-18T06:29:11;22.35;;;15.50;;
3297;SDS011;1661;53.572;10.174;2022-12-18T06:31:38;28.70;;;15.73;;
3297;SDS011;1661;53.572;10.174;2022-12-18T06:34:07;23.15;;;15.85;;
3297;SDS011;1661;53.572;10.174;2022-12-18T06:36:33;26.83;;;15.90;;
3297;SDS011;1661;53.572;10.174;2022-12-18T06:39:00;25.05;;;16.05;;
3297;SDS011;1661;53.572;10.174;2022-12-18T06:41:27;31.13;;;18.73;;
3297;SDS011;1661;53.572;10.174;2022-12-18T06:43:54;32.45;;;17.15;;
3297;SDS011;1661;53.572;10.174;2022-12-18T06:46:21;35.15;;;16.80;;
3297;SDS011;1661;53.572;10.174;2022-12-18T06:48:48;24.27;;;15.43;;
3297;SDS011;1661;53.572;10.174;2022-12-18T06:51:18;29.48;;;19.50;;
3297;SDS011;1661;53.572;10.174;2022-12-18T06:53:46;27.50;;;19.23;;
3297;SDS011;1661;53.572;10.174;2022-12-18T06:56:12;26.00;;;17.38;;
3297;SDS011;1661;53.572;10.174;2022-12-18T06:58:39;28.23;;;16.05;;
3297;SDS011;1661;53.572;10.174;2022-12-18T07:01:07;28.98;;;17.13;;
3297;SDS011;1661;53.572;10.174;2022-12-18T07:03:36;34.28;;;19.95;;
3297;SDS011;1661;53.572;10.174;2022-12-18T07:06:03;24.48;;;15.48;;
3297;SDS011;1661;53.572;10.174;2022-12-18T07:08:32;31.77;;;17.48;;
3297;SDS011;1661;53.572;10.174;2022-12-18T07:11:02;32.38;;;18.75;;
3297;SDS011;1661;53.572;10.174;2022-12-18T07:13:31;24.50;;;15.93;;
3297;SDS011;1661;53.572;10.174;2022-12-18T07:16:03;31.77;;;17.27;;
3297;SDS011;1661;53.572;10.174;2022-12-18T07:18:31;37.42;;;19.98;;
3297;SDS011;1661;53.572;10.174;2022-12-18T07:20:57;40.63;;;19.67;;
3297;SDS011;1661;53.572;10.174;2022-12-18T07:23:28;27.25;;;18.70;;
3297;SDS011;1661;53.572;10.174;2022-12-18T07:25:59;30.83;;;18.02;;
3297;SDS011;1661;53.572;10.174;2022-12-18T07:28:27;27.30;;;16.17;;
3297;SDS011;1661;53.572;10.174;2022-12-18T07:30:53;31.90;;;18.35;;
3297;SDS011;1661;53.572;10.174;2022-12-18T07:33:20;50.50;;;20.40;;
3297;SDS011;1661;53.572;10.174;2022-12-18T07:35:50;23.83;;;17.67;;
3297;SDS011;1661;53.572;10.174;2022-12-18T07:38:16;35.85;;;20.73;;
3297;SDS011;1661;53.572;10.174;2022-12-18T07:40:43;32.38;;;19.60;;
3297;SDS011;1661;53.572;10.174;2022-12-18T07:43:11;35.20;;;19.30;;
3297;SDS011;1661;53.572;10.174;2022-12-18T07:45:38;34.40;;;20.42;;
3297;SDS011;1661;53.572;10.174;2022-12-18T07:48:05;37.13;;;20.00;;
3297;SDS011;1661;53.572;10.174;2022-12-18T07:50:32;36.38;;;19.20;;
3297;SDS011;1661;53.572;10.174;2022-12-18T07:52:58;37.13;;;18.45;;
3297;SDS011;1661;53.572;10.174;2022-12-18T07:55:29;32.72;;;16.90;;
3297;SDS011;1661;53.572;10.174;2022-12-18T07:57:57;34.67;;;18.55;;
3297;SDS011;1661;53.572;10.174;2022-12-18T08:00:27;33.83;;;19.77;;
3297;SDS011;1661;53.572;10.174;2022-12-18T08:03:00;31.42;;;19.17;;
3297;SDS011;1661;53.572;10.174;2022-12-18T08:05:27;35.90;;;20.05;;
3297;SDS011;1661;53.572;10.174;2022-12-18T08:07:54;31.42;;;15.65;;
3297;SDS011;1661;53.572;10.174;2022-12-18T08:10:21;33.67;;;16.98;;
3297;SDS011;1661;53.572;10.174;2022-12-18T08:12:49;33.55;;;18.73;;
3297;SDS011;1661;53.572;10.174;2022-12-18T08:15:16;30.75;;;17.27;;
3297;SDS011;1661;53.572;10.174;2022-12-18T08:17:46;27.92;;;16.67;;
3297;SDS011;1661;53.572;10.174;2022-12-18T08:20:13;30.67;;;16.92;;
3297;SDS011;1661;53.572;10.174;2022-12-18T08:22:40;39.83;;;17.73;;
3297;SDS011;1661;53.572;10.174;2022-12-18T08:25:07;26.08;;;16.48;;
3297;SDS011;1661;53.572;10.174;2022-12-18T08:27:36;27.98;;;18.05;;
3297;SDS011;1661;53.572;10.174;2022-12-18T08:30:04;32.60;;;18.25;;
3297;SDS011;1661;53.572;10.174;2022-12-18T08:32:31;36.33;;;19.33;;
3297;SDS011;1661;53.572;10.174;2022-12-18T08:35:00;23.70;;;15.95;;
3297;SDS011;1661;53.572;10.174;2022-12-18T08:37:27;33.50;;;20.73;;
3297;SDS011;1661;53.572;10.174;2022-12-18T08:39:53;26.98;;;17.90;;
3297;SDS011;1661;53.572;10.174;2022-12-18T08:42:20;28.25;;;15.85;;
3297;SDS011;1661;53.572;10.174;2022-12-18T08:45:05;24.08;;;15.07;;
3297;SDS011;1661;53.572;10.174;2022-12-18T08:47:32;22.65;;;15.57;;
3297;SDS011;1661;53.572;10.174;2022-12-18T08:50:01;30.83;;;18.48;;
3297;SDS011;1661;53.572;10.174;2022-12-18T08:52:31;33.78;;;16.70;;
3297;SDS011;1661;53.572;10.174;2022-12-18T08:54:58;30.90;;;17.50;;
3297;SDS011;1661;53.572;10.174;2022-12-18T08:57:25;29.10;;;16.38;;
3297;SDS011;1661;53.572;10.174;2022-12-18T08:59:51;29.30;;;17.38;;
3297;SDS011;1661;53.572;10.174;2022-12-18T09:02:18;30.98;;;17.80;;
3297;SDS011;1661;53.572;10.174;2022-12-18T09:04:46;24.73;;;14.93;;
3297;SDS011;1661;53.572;10.174;2022-12-18T09:07:14;33.00;;;16.88;;
3297;SDS011;1661;53.572;10.174;2022-12-18T09:09:41;33.70;;;18.90;;
3297;SDS011;1661;53.572;10.174;2022-12-18T09:12:08;32.92;;;18.27;;
3297;SDS011;1661;53.572;10.174;2022-12-18T09:14:35;30.65;;;17.33;;
3297;SDS011;1661;53.572;10.174;2022-12-18T09:17:02;27.20;;;16.30;;
3297;SDS011;1661;53.572;10.174;2022-12-18T09:19:29;25.50;;;16.80;;
3297;SDS011;1661;53.572;10.174;2022-12-18T09:21:55;27.17;;;16.60;;
3297;SDS011;1661;53.572;10.174;2022-12-18T09:24:24;33.70;;;17.05;;
3297;SDS011;1661;53.572;10.174;2022-12-18T09:26:52;38.42;;;16.35;;
3297;SDS011;1661;53.572;10.174;2022-12-18T09:29:19;32.45;;;19.77;;
3297;SDS011;1661;53.572;10.174;2022-12-18T09:31:46;28.58;;;17.08;;
3297;SDS011;1661;53.572;10.174;2022-12-18T09:34:15;27.65;;;16.73;;
3297;SDS011;1661;53.572;10.174;2022-12-18T09:36:42;29.52;;;15.25;;
3297;SDS011;1661;53.572;10.174;2022-12-18T09:39:09;24.75;;;13.98;;
3297;SDS011;1661;53.572;10.174;2022-12-18T09:41:40;24.42;;;15.57;;
3297;SDS011;1661;53.572;10.174;2022-12-18T09:44:13;27.17;;;17.90;;
3297;SDS011;1661;53.572;10.174;2022-12-18T09:46:47;26.90;;;15.23;;
3297;SDS011;1661;53.572;10.174;2022-12-18T09:49:19;25.80;;;15.27;;
3297;SDS011;1661;53.572;10.174;2022-12-18T09:51:50;24.38;;;15.25;;
3297;SDS011;1661;53.572;10.174;2022-12-18T09:54:21;28.15;;;16.75;;
3297;SDS011;1661;53.572;10.174;2022-12-18T09:56:53;25.40;;;15.40;;
3297;SDS011;1661;53.572;10.174;2022-12-18T09:59:23;29.85;;;15.77;;
3297;SDS011;1661;53.572;10.174;2022-12-18T10:01:52;28.60;;;15.95;;
3297;SDS011;1661;53.572;10.174;2022-12-18T10:04:23;25.02;;;16.20;;
3297;SDS011;1661;53.572;10.174;2022-12-18T10:06:52;29.90;;;17.23;;
3297;SDS011;1661;53.572;10.174;2022-12-18T10:09:27;23.55;;;15.15;;
3297;SDS011;1661;53.572;10.174;2022-12-18T10:12:06;24.38;;;14.68;;
3297;SDS011;1661;53.572;10.174;2022-12-18T10:14:41;27.17;;;15.18;;
3297;SDS011;1661;53.572;10.174;2022-12-18T10:17:14;30.92;;;17.90;;
3297;SDS011;1661;53.572;10.174;2022-12-18T10:19:51;21.90;;;15.52;;
3297;SDS011;1661;53.572;10.174;2022-12-18T10:22:25;26.23;;;14.70;;
3297;SDS011;1661;53.572;10.174;2022-12-18T10:25:10;30.77;;;17.88;;
3297;SDS011;1661;53.572;10.174;2022-12-18T10:27:47;26.70;;;15.55;;
3297;SDS011;1661;53.572;10.174;2022-12-18T10:30:18;30.73;;;17.67;;
3297;SDS011;1661;53.572;10.174;2022-12-18T10:32:47;22.75;;;15.13;;
3297;SDS011;1661;53.572;10.174;2022-12-18T10:35:15;26.08;;;16.33;;
3297;SDS011;1661;53.572;10.174;2022-12-18T10:38:05;30.60;;;16.17;;
3297;SDS011;1661;53.572;10.174;2022-12-18T10:40:49;27.52;;;16.77;;
3297;SDS011;1661;53.572;10.174;2022-12-18T10:43:22;28.08;;;17.80;;
3297;SDS011;1661;53.572;10.174;2022-12-18T10:46:02;35.90;;;18.38;;
3297;SDS011;1661;53.572;10.174;2022-12-18T10:48:39;30.23;;;18.20;;
3297;SDS011;1661;53.572;10.174;2022-12-18T10:51:24;29.10;;;17.75;;
3297;SDS011;1661;53.572;10.174;2022-12-18T10:53:54;29.20;;;17.25;;
3297;SDS011;1661;53.572;10.174;2022-12-18T10:56:23;28.70;;;17.05;;
3297;SDS011;1661;53.572;10.174;2022-12-18T10:58:57;26.60;;;16.77;;
3297;SDS011;1661;53.572;10.174;2022-12-18T11:01:26;32.15;;;17.95;;
3297;SDS011;1661;53.572;10.174;2022-12-18T11:04:02;29.42;;;17.75;;
3297;SDS011;1661;53.572;10.174;2022-12-18T11:06:35;26.98;;;18.23;;
3297;SDS011;1661;53.572;10.174;2022-12-18T11:09:23;24.70;;;15.15;;
3297;SDS011;1661;53.572;10.174;2022-12-18T11:11:52;35.67;;;19.45;;
3297;SDS011;1661;53.572;10.174;2022-12-18T11:14:25;27.48;;;16.75;;
3297;SDS011;1661;53.572;10.174;2022-12-18T11:16:55;23.55;;;16.75;;
3297;SDS011;1661;53.572;10.174;2022-12-18T11:19:29;31.77;;;17.60;;
3297;SDS011;1661;53.572;10.174;2022-12-18T11:21:59;31.02;;;17.90;;
3297;SDS011;1661;53.572;10.174;2022-12-18T11:24:30;25.92;;;16.30;;
3297;SDS011;1661;53.572;10.174;2022-12-18T11:27:00;26.77;;;16.48;;
3297;SDS011;1661;53.572;10.174;2022-12-18T11:29:34;24.13;;;16.75;;
3297;SDS011;1661;53.572;10.174;2022-12-18T11:34:55;25.63;;;16.63;;
3297;SDS011;1661;53.572;10.174;2022-12-18T11:37:27;30.15;;;16.92;;
3297;SDS011;1661;53.572;10.174;2022-12-18T11:39:55;29.52;;;17.77;;
3297;SDS011;1661;53.572;10.174;2022-12-18T11:42:27;27.77;;;16.70;;
3297;SDS011;1661;53.572;10.174;2022-12-18T11:45:00;27.95;;;17.25;;
3297;SDS011;1661;53.572;10.174;2022-12-18T11:47:35;29.02;;;17.33;;
3297;SDS011;1661;53.572;10.174;2022-12-18T11:50:16;25.48;;;15.52;;
3297;SDS011;1661;53.572;10.174;2022-12-18T11:52:47;25.95;;;17.75;;
3297;SDS011;1661;53.572;10.174;2022-12-18T11:55:15;28.98;;;16.55;;
3297;SDS011;1661;53.572;10.174;2022-12-18T11:57:51;28.17;;;16.75;;
3297;SDS011;1661;53.572;10.174;2022-12-18T12:00:26;36.28;;;18.38;;
3297;SDS011;1661;53.572;10.174;2022-12-18T12:03:15;35.28;;;20.42;;
3297;SDS011;1661;53.572;10.174;2022-12-18T12:05:55;35.10;;;18.33;;
3297;SDS011;1661;53.572;10.174;2022-12-18T12:08:30;43.60;;;21.60;;
3297;SDS011;1661;53.572;10.174;2022-12-18T12:11:06;38.22;;;21.70;;
3297;SDS011;1661;53.572;10.174;2022-12-18T12:13:39;36.45;;;22.08;;
3297;SDS011;1661;53.572;10.174;2022-12-18T12:16:25;36.55;;;21.83;;
3297;SDS011;1661;53.572;10.174;2022-12-18T12:19:03;33.67;;;18.73;;
3297;SDS011;1661;53.572;10.174;2022-12-18T12:21:42;32.20;;;18.45;;
3297;SDS011;1661;53.572;10.174;2022-12-18T12:24:19;35.78;;;18.13;;
3297;SDS011;1661;53.572;10.174;2022-12-18T12:26:57;30.83;;;18.00;;
3297;SDS011;1661;53.572;10.174;2022-12-18T12:29:36;32.63;;;19.98;;
3297;SDS011;1661;53.572;10.174;2022-12-18T12:32:19;38.80;;;21.23;;
3297;SDS011;1661;53.572;10.174;2022-12-18T12:35:00;39.35;;;19.83;;
3297;SDS011;1661;53.572;10.174;2022-12-18T12:37:38;36.33;;;17.48;;
3297;SDS011;1661;53.572;10.174;2022-12-18T12:40:12;33.00;;;17.67;;
3297;SDS011;1661;53.572;10.174;2022-12-18T12:42:46;37.22;;;17.50;;
3297;SDS011;1661;53.572;10.174;2022-12-18T12:45:36;32.22;;;16.67;;
3297;SDS011;1661;53.572;10.174;2022-12-18T12:48:19;35.67;;;18.38;;
3297;SDS011;1661;53.572;10.174;2022-12-18T12:50:53;34.60;;;18.65;;
3297;SDS011;1661;53.572;10.174;2022-12-18T12:53:23;37.47;;;20.48;;
3297;SDS011;1661;53.572;10.174;2022-12-18T12:55:55;30.05;;;17.00;;
3297;SDS011;1661;53.572;10.174;2022-12-18T12:58:26;42.75;;;20.60;;
3297;SDS011;1661;53.572;10.174;2022-12-18T13:01:01;41.92;;;19.33;;
3297;SDS011;1661;53.572;10.174;2022-12-18T13:03:41;36.60;;;18.90;;
3297;SDS011;1661;53.572;10.174;2022-12-18T13:06:13;36.58;;;18.33;;
3297;SDS011;1661;53.572;10.174;2022-12-18T13:08:54;34.45;;;17.20;;
3297;SDS011;1661;53.572;10.174;2022-12-18T13:11:29;33.88;;;18.52;;
3297;SDS011;1661;53.572;10.174;2022-12-18T13:14:22;32.05;;;17.45;;
3297;SDS011;1661;53.572;10.174;2022-12-18T13:20:02;34.58;;;17.90;;
3297;SDS011;1661;53.572;10.174;2022-12-18T13:22:33;31.05;;;15.52;;
3297;SDS011;1661;53.572;10.174;2022-12-18T13:25:02;31.83;;;16.50;;
3297;SDS011;1661;53.572;10.174;2022-12-18T13:27:57;33.10;;;17.92;;
3297;SDS011;1661;53.572;10.174;2022-12-18T13:48:03;35.17;;;16.75;;
3297;SDS011;1661;53.572;10.174;2022-12-18T13:50:30;33.15;;;17.13;;
3297;SDS011;1661;53.572;10.174;2022-12-18T13:53:05;36.42;;;17.65;;
3297;SDS011;1661;53.572;10.174;2022-12-18T13:55:32;39.67;;;17.90;;
3297;SDS011;1661;53.572;10.174;2022-12-18T13:58:03;40.20;;;18.00;;
3297;SDS011;1661;53.572;10.174;2022-12-18T14:00:30;30.58;;;17.77;;
3297;SDS011;1661;53.572;10.174;2022-12-18T14:02:57;37.97;;;17.95;;
3297;SDS011;1661;53.572;10.174;2022-12-18T14:05:29;36.75;;;18.48;;
3297;SDS011;1661;53.572;10.174;2022-12-18T14:07:59;34.95;;;17.08;;
3297;SDS011;1661;53.572;10.174;2022-12-18T14:10:32;27.95;;;16.77;;
3297;SDS011;1661;53.572;10.174;2022-12-18T14:13:02;34.40;;;17.70;;
3297;SDS011;1661;53.572;10.174;2022-12-18T14:15:32;40.33;;;19.98;;
3297;SDS011;1661;53.572;10.174;2022-12-18T14:18:01;37.13;;;18.40;;
3297;SDS011;1661;53.572;10.174;2022-12-18T14:20:35;40.67;;;19.88;;
3297;SDS011;1661;53.572;10.174;2022-12-18T14:23:03;44.97;;;20.70;;
3297;SDS011;1661;53.572;10.174;2022-12-18T14:25:30;40.20;;;20.35;;
3297;SDS011;1661;53.572;10.174;2022-12-18T14:28:02;48.88;;;24.73;;
3297;SDS011;1661;53.572;10.174;2022-12-18T14:30:35;41.28;;;20.17;;
3297;SDS011;1661;53.572;10.174;2022-12-18T14:33:03;46.83;;;20.73;;
3297;SDS011;1661;53.572;10.174;2022-12-18T14:35:32;38.85;;;19.65;;
3297;SDS011;1661;53.572;10.174;2022-12-18T14:38:21;44.53;;;21.52;;
3297;SDS011;1661;53.572;10.174;2022-12-18T14:40:53;48.10;;;23.40;;
3297;SDS011;1661;53.572;10.174;2022-12-18T14:43:20;41.63;;;22.50;;
3297;SDS011;1661;53.572;10.174;2022-12-18T14:45:48;37.88;;;18.73;;
3297;SDS011;1661;53.572;10.174;2022-12-18T14:48:17;39.10;;;20.20;;
3297;SDS011;1661;53.572;10.174;2022-12-18T14:50:53;41.53;;;21.55;;
3297;SDS011;1661;53.572;10.174;2022-12-18T14:53:23;61.83;;;27.85;;
3297;SDS011;1661;53.572;10.174;2022-12-18T14:56:00;59.80;;;29.45;;
3297;SDS011;1661;53.572;10.174;2022-12-18T14:58:31;52.15;;;25.55;;
3297;SDS011;1661;53.572;10.174;2022-12-18T15:01:01;50.63;;;24.95;;
3297;SDS011;1661;53.572;10.174;2022-12-18T15:03:28;53.58;;;24.27;;
3297;SDS011;1661;53.572;10.174;2022-12-18T15:05:54;42.72;;;23.38;;
3297;SDS011;1661;53.572;10.174;2022-12-18T15:08:27;44.83;;;24.77;;
3297;SDS011;1661;53.572;10.174;2022-12-18T15:13:57;41.67;;;21.75;;
3297;SDS011;1661;53.572;10.174;2022-12-18T15:16:24;48.22;;;26.40;;
3297;SDS011;1661;53.572;10.174;2022-12-18T15:18:51;51.83;;;24.95;;